Time;durP1;ratioP1;P1;durP2;ratioP2;P2;SDS_P1;SDS_P2;PMS_P1;PMS_P2;Temp;Humidity;BMP_temperature;BMP_pressure;BME280_temperature;BME280_humidity;BME280_pressure;Samples;Min_cycle;Max_cycle;Signal;HPM_P1;HPM_P2
2022/06/20 00:00:26;;;;;;;6.60;4.60;;;;;;;18.57;60.14;97345.71;108144;1289;22568;-89
2022/06/20 00:03:09;;;;;;;6.30;4.40;;;;;;;18.42;60.30;97339.94;106891;1288;25357;-91
2022/06/20 00:09:59;;;;;;;11.00;4.30;;;;;;;18.09;61.13;97338.11;105219;1289;22669;-91
2022/06/20 00:12:27;;;;;;;10.10;4.50;;;;;;;18.14;61.44;97333.20;105045;1288;24130;-90
2022/06/20 00:14:59;;;;;;;5.70;4.30;;;;;;;18.13;61.47;97331.95;105095;1288;22512;-90
2022/06/20 00:17:27;;;;;;;7.40;4.50;;;;;;;18.03;62.01;97329.49;105038;1289;22640;-89
2022/06/20 00:19:55;;;;;;;7.60;4.80;;;;;;;17.84;62.60;97340.75;105175;1289;25495;-90
2022/06/20 00:22:23;;;;;;;12.00;4.90;;;;;;;17.56;63.58;97362.73;105034;1288;23416;-87
2022/06/20 00:24:51;;;;;;;8.40;5.40;;;;;;;17.06;64.91;97386.61;105001;1289;24435;-89
2022/06/20 00:27:19;;;;;;;7.30;4.10;;;;;;;16.81;64.73;97390.15;105868;1288;25470;-90
2022/06/20 00:29:49;;;;;;;6.70;4.40;;;;;;;17.05;64.65;97389.52;106286;1288;22571;-91
2022/06/20 00:32:17;;;;;;;5.70;4.00;;;;;;;17.43;64.45;97380.83;106518;1289;22652;-91
2022/06/20 00:34:45;;;;;;;6.50;4.10;;;;;;;17.76;63.55;97383.48;105897;1288;23925;-90
2022/06/20 00:37:19;;;;;;;6.90;4.30;;;;;;;18.06;63.17;97393.13;105253;1288;22582;-93
2022/06/20 00:39:49;;;;;;;5.50;4.10;;;;;;;18.28;62.68;97397.73;105363;1288;22554;-90
2022/06/20 00:42:17;;;;;;;5.30;3.80;;;;;;;18.51;62.72;97384.98;105197;1290;22585;-89
2022/06/20 00:44:48;;;;;;;5.30;4.00;;;;;;;18.78;62.36;97379.37;105332;1288;22607;-92
2022/06/20 00:47:21;;;;;;;12.60;4.50;;;;;;;18.97;61.94;97382.97;105328;1288;22730;-93
2022/06/20 00:50:27;;;;;;;9.40;4.50;;;;;;;19.07;61.27;97383.03;105482;1289;23989;-90
2022/06/20 00:53:09;;;;;;;9.30;4.10;;;;;;;19.04;60.64;97387.83;105228;1289;22721;-92
2022/06/20 00:55:50;;;;;;;6.50;4.00;;;;;;;18.90;60.91;97381.91;105294;1288;22708;-90
2022/06/20 00:58:23;;;;;;;6.50;4.50;;;;;;;18.95;61.24;97374.97;105375;1288;22554;-91
2022/06/20 01:00:53;;;;;;;10.10;5.50;;;;;;;18.92;60.60;97365.95;105235;1288;23869;-91
2022/06/20 01:03:25;;;;;;;8.90;4.90;;;;;;;18.79;60.75;97360.53;105191;1289;22842;-92
2022/06/20 01:06:18;;;;;;;6.80;4.30;;;;;;;18.74;60.84;97367.45;105186;1288;23452;-92
2022/06/20 01:08:51;;;;;;;7.00;3.60;;;;;;;18.77;60.93;97364.63;105390;1288;24358;-92
2022/06/20 01:11:23;;;;;;;8.10;4.70;;;;;;;18.84;60.91;97356.63;105336;1289;22734;-91
2022/06/20 01:13:51;;;;;;;11.60;4.60;;;;;;;18.99;60.79;97351.31;105057;1290;22570;-91
2022/06/20 01:16:25;;;;;;;8.50;4.80;;;;;;;19.13;60.41;97351.30;104927;1288;22631;-90
2022/06/20 01:18:55;;;;;;;9.60;4.90;;;;;;;19.21;59.99;97365.70;104928;1288;22639;-91
2022/06/20 01:21:29;;;;;;;8.80;4.10;;;;;;;19.20;60.15;97355.91;105046;1290;22676;-91
2022/06/20 01:24:35;;;;;;;6.00;3.80;;;;;;;19.31;59.93;97343.42;105100;1288;23947;-92
2022/06/20 01:27:36;;;;;;;8.30;4.30;;;;;;;19.34;59.84;97347.45;104573;1297;24216;-91
2022/06/20 01:30:04;;;;;;;6.50;4.30;;;;;;;19.35;59.58;97340.83;104046;1303;25949;-91
2022/06/20 01:32:33;;;;;;;11.40;5.00;;;;;;;19.26;59.51;97337.20;104021;1303;24441;-90
2022/06/20 01:35:05;;;;;;;11.20;4.90;;;;;;;19.07;59.19;97344.89;104110;1302;23542;-90
2022/06/20 01:37:38;;;;;;;9.30;5.40;;;;;;;18.88;60.17;97334.30;105341;1303;22592;-90
2022/06/20 01:40:11;;;;;;;6.60;4.20;;;;;;;18.86;60.06;97330.61;106035;1303;22607;-90
2022/06/20 01:46:28;;;;;;;10.50;4.30;;;;;;;19.05;60.24;97323.16;104174;1302;22861;-92
2022/06/20 01:49:00;;;;;;;7.00;5.00;;;;;;;19.03;59.88;97319.02;104126;1303;26560;-90
2022/06/20 01:51:37;;;;;;;9.80;5.50;;;;;;;18.77;60.21;97340.05;103884;1303;23320;-93
2022/06/20 01:54:05;;;;;;;7.00;4.80;;;;;;;18.05;61.36;97343.86;103786;1303;209701;-92
2022/06/20 01:56:33;;;;;;;8.80;4.80;;;;;;;17.89;62.38;97335.00;103957;1303;22577;-92
2022/06/20 01:59:23;;;;;;;6.30;4.50;;;;;;;18.06;62.55;97339.14;103836;1303;22744;-91
2022/06/20 02:01:53;;;;;;;9.20;5.60;;;;;;;18.33;61.71;97343.90;103803;1303;25385;-91
2022/06/20 02:04:25;;;;;;;8.10;5.60;;;;;;;18.29;61.36;97337.77;104258;1297;22591;-90
2022/06/20 02:06:55;;;;;;;8.70;5.00;;;;;;;18.22;62.58;97324.38;104605;1288;22734;-91
2022/06/20 02:09:24;;;;;;;9.20;5.50;;;;;;;18.41;62.78;97310.91;104824;1290;22548;-91
2022/06/20 02:11:52;;;;;;;7.70;5.30;;;;;;;18.56;61.99;97318.96;104990;1287;22560;-91
2022/06/20 02:14:37;;;;;;;7.90;4.90;;;;;;;18.50;61.18;97319.16;104920;1288;25931;-89
2022/06/20 02:17:12;;;;;;;7.40;4.10;;;;;;;18.44;61.83;97316.27;104926;1288;22815;-91
2022/06/20 02:19:48;;;;;;;10.00;5.10;;;;;;;18.47;61.40;97323.11;104965;1288;22674;-91
2022/06/20 02:22:19;;;;;;;10.10;4.80;;;;;;;18.36;61.04;97321.59;104893;1289;22771;-90
2022/06/20 02:24:53;;;;;;;10.90;5.00;;;;;;;18.23;61.43;97320.11;104948;1288;22557;-89
2022/06/20 02:27:30;;;;;;;9.80;5.60;;;;;;;18.11;61.71;97313.23;104934;1289;25427;-89
2022/06/20 02:30:01;;;;;;;7.70;5.00;;;;;;;18.04;62.82;97301.72;104957;1288;22575;-92
2022/06/20 02:32:37;;;;;;;9.40;5.30;;;;;;;18.10;61.96;97303.86;105058;1288;22631;-90
2022/06/20 02:35:09;;;;;;;9.80;5.50;;;;;;;17.89;62.28;97315.92;104929;1288;24436;-92
2022/06/20 02:37:38;;;;;;;6.30;4.70;;;;;;;17.51;63.10;97316.08;104962;1288;23247;-90
2022/06/20 02:40:10;;;;;;;7.40;4.40;;;;;;;17.55;64.97;97309.33;105014;1288;22595;-91
2022/06/20 02:42:44;;;;;;;8.50;4.40;;;;;;;17.89;65.16;97308.52;105410;1288;22683;-90
2022/06/20 02:45:13;;;;;;;10.50;4.70;;;;;;;18.21;63.76;97310.27;105152;1288;24391;-91
2022/06/20 02:47:48;;;;;;;8.70;4.90;;;;;;;18.19;62.72;97312.80;106562;1288;22592;-92
2022/06/20 02:50:21;;;;;;;6.50;4.50;;;;;;;18.06;64.58;97307.51;106238;1288;22566;-91
2022/06/20 02:52:59;;;;;;;9.80;5.50;;;;;;;18.26;64.40;97299.29;105526;1288;25437;-90
2022/06/20 02:55:29;;;;;;;11.00;5.30;;;;;;;18.26;62.76;97309.66;104905;1288;22575;-91
2022/06/20 02:58:03;;;;;;;7.00;4.50;;;;;;;17.84;63.71;97319.08;104985;1288;24383;-91
2022/06/20 03:00:55;;;;;;;7.50;4.10;;;;;;;17.61;64.60;97316.91;104987;1288;22589;-89
2022/06/20 03:03:30;;;;;;;8.00;5.30;;;;;;;17.86;65.01;97318.65;105072;1288;25435;-91
2022/06/20 03:06:00;;;;;;;10.00;5.70;;;;;;;17.92;63.86;97321.13;105132;1288;23024;-92
2022/06/20 03:08:29;;;;;;;12.10;5.40;;;;;;;17.89;63.80;97327.37;105307;1288;24149;-92
2022/06/20 03:11:03;;;;;;;8.40;5.50;;;;;;;17.67;63.32;97339.90;105165;1288;25380;-91
2022/06/20 03:13:34;;;;;;;6.70;4.70;;;;;;;17.45;65.30;97322.73;105037;1288;24157;-89
2022/06/20 03:16:03;;;;;;;8.40;5.10;;;;;;;17.63;65.44;97312.13;105199;1288;24667;-90
2022/06/20 03:18:36;;;;;;;9.40;5.00;;;;;;;17.74;64.47;97321.45;105062;1288;23511;-89
2022/06/20 03:21:06;;;;;;;8.30;5.40;;;;;;;17.64;64.51;97327.31;105566;1288;22769;-91
2022/06/20 03:23:34;;;;;;;6.40;4.60;;;;;;;17.53;64.90;97328.90;107732;1288;22562;-89
2022/06/20 03:26:05;;;;;;;8.90;4.60;;;;;;;17.66;65.48;97318.03;108194;1288;22546;-91
2022/06/20 03:29:25;;;;;;;7.50;5.00;;;;;;;17.92;65.47;97316.91;105726;1288;22681;-91
2022/06/20 03:31:54;;;;;;;8.50;5.70;;;;;;;18.02;64.78;97323.25;105269;1288;22508;-91
2022/06/20 03:34:22;;;;;;;6.30;5.40;;;;;;;17.58;65.78;97329.38;105182;1288;25377;-91
2022/06/20 03:36:51;;;;;;;8.70;4.30;;;;;;;17.45;65.64;97332.84;104916;1288;22664;-91
2022/06/20 03:39:20;;;;;;;9.00;4.80;;;;;;;17.67;66.73;97336.89;104917;1288;24391;-89
2022/06/20 03:41:49;;;;;;;8.20;5.10;;;;;;;17.90;65.74;97336.81;105557;1288;22606;-92
2022/06/20 03:44:29;;;;;;;8.10;4.30;;;;;;;17.80;65.41;97342.77;105387;1290;22601;-93
2022/06/20 03:47:11;;;;;;;8.00;4.70;;;;;;;17.98;66.31;97329.71;105938;1288;22575;-93
2022/06/20 03:49:48;;;;;;;7.50;5.00;;;;;;;18.27;66.05;97332.02;105608;1288;22560;-93
2022/06/20 03:52:26;;;;;;;8.30;5.20;;;;;;;18.28;65.55;97336.48;105328;1288;22603;-94
2022/06/20 03:55:03;;;;;;;7.00;4.50;;;;;;;18.05;65.53;97340.29;105406;1288;23947;-93
2022/06/20 03:57:40;;;;;;;9.70;4.90;;;;;;;18.02;65.57;97339.77;107001;1288;22559;-90
2022/06/20 04:00:23;;;;;;;6.90;5.00;;;;;;;17.99;66.17;97338.48;107283;1288;22594;-92
2022/06/20 04:02:56;;;;;;;7.60;5.10;;;;;;;17.95;66.13;97336.29;106521;1288;22594;-91
2022/06/20 04:05:41;;;;;;;9.30;4.90;;;;;;;18.04;66.31;97337.48;105262;1288;22704;-93
2022/06/20 04:11:55;;;;;;;7.60;4.50;;;;;;;18.77;67.19;97327.42;105383;1288;22583;-91
2022/06/20 04:14:34;;;;;;;10.10;4.60;;;;;;;19.22;66.36;97323.09;105290;1288;22570;-91
2022/06/20 04:20:01;;;;;;;10.60;5.60;;;;;;;19.90;65.07;97333.25;105141;1288;23969;-90
2022/06/20 04:22:36;;;;;;;8.70;5.20;;;;;;;20.04;64.74;97338.95;105351;1288;22579;-91
2022/06/20 04:25:12;;;;;;;8.40;5.50;;;;;;;19.84;64.62;97351.39;104993;1289;22559;-88
2022/06/20 04:27:50;;;;;;;7.40;4.90;;;;;;;19.62;64.92;97349.85;105017;1288;24288;-91
2022/06/20 04:30:22;;;;;;;8.50;4.80;;;;;;;19.75;65.19;97350.96;105087;1288;22548;-92
2022/06/20 04:33:00;;;;;;;11.50;5.90;;;;;;;19.98;64.73;97356.23;105016;1288;24136;-91
2022/06/20 04:35:39;;;;;;;8.60;5.10;;;;;;;19.95;63.65;97355.10;104859;1288;22594;-90
2022/06/20 04:38:21;;;;;;;7.50;4.60;;;;;;;19.98;63.80;97342.10;104919;1288;24401;-91
2022/06/20 04:41:41;;;;;;;12.40;4.80;;;;;;;20.24;63.77;97339.77;105188;1288;22582;-91
2022/06/20 04:44:21;;;;;;;6.30;4.30;;;;;;;20.57;63.48;97341.21;104725;1290;22572;-90
2022/06/20 04:47:25;;;;;;;8.30;4.70;;;;;;;20.72;62.69;97342.04;104969;1288;22584;-88
2022/06/20 04:49:54;;;;;;;6.30;4.40;;;;;;;20.87;62.17;97339.72;104934;1288;24302;-90
2022/06/20 04:52:26;;;;;;;8.60;4.60;;;;;;;20.97;62.20;97346.45;104963;1288;22569;-91
2022/06/20 04:54:56;;;;;;;7.20;5.10;;;;;;;21.00;61.87;97351.48;105006;1288;22540;-90
2022/06/20 04:57:26;;;;;;;8.60;5.00;;;;;;;21.04;60.81;97352.30;104882;1288;22581;-91
2022/06/20 04:59:58;;;;;;;11.20;4.80;;;;;;;21.06;61.23;97350.11;104961;1288;22716;-91
2022/06/20 05:02:26;;;;;;;6.60;5.00;;;;;;;21.14;60.86;97351.74;104992;1288;22557;-91
2022/06/20 05:04:57;;;;;;;7.60;4.80;;;;;;;21.18;59.68;97352.98;104947;1288;25249;-92
2022/06/20 05:07:33;;;;;;;7.30;5.40;;;;;;;21.20;59.21;97353.96;105714;1290;22483;-89
2022/06/20 05:10:29;;;;;;;8.60;4.70;;;;;;;21.26;59.84;97357.36;105941;1288;24213;-90
2022/06/20 05:13:04;;;;;;;13.10;4.70;;;;;;;21.39;59.66;97361.77;105371;1288;23190;-91
2022/06/20 05:15:40;;;;;;;5.90;4.30;;;;;;;21.43;59.31;97361.48;104964;1288;22688;-89
2022/06/20 05:18:30;;;;;;;8.00;5.20;;;;;;;21.49;58.86;97364.57;104967;1288;22544;-90
2022/06/20 05:21:21;;;;;;;9.70;4.60;;;;;;;21.60;59.05;97359.22;104968;1288;25487;-92
2022/06/20 05:23:54;;;;;;;10.20;5.60;;;;;;;21.68;57.56;97363.17;104967;1288;23168;-90
2022/06/20 05:26:25;;;;;;;19.30;9.70;;;;;;;21.77;58.06;97362.05;104992;1288;22695;-90
2022/06/20 05:28:57;;;;;;;7.60;4.80;;;;;;;21.87;56.77;97366.93;104936;1290;24289;-90
2022/06/20 05:31:42;;;;;;;9.20;4.40;;;;;;;21.94;56.46;97370.96;104931;1288;22595;-91
2022/06/20 05:34:25;;;;;;;8.30;4.00;;;;;;;22.03;56.59;97377.58;104647;1291;25431;-90
2022/06/20 05:37:05;;;;;;;8.00;4.50;;;;;;;22.13;56.09;97374.48;104872;1288;25364;-91
2022/06/20 05:39:37;;;;;;;9.60;4.90;;;;;;;22.23;56.63;97377.35;104952;1288;22571;-91
2022/06/20 05:42:11;;;;;;;10.10;5.90;;;;;;;22.34;56.51;97381.52;104957;1288;22845;-91
2022/06/20 05:44:39;;;;;;;5.60;4.10;;;;;;;22.43;56.59;97382.25;104903;1291;24295;-91
2022/06/20 05:47:24;;;;;;;7.80;4.30;;;;;;;22.52;56.43;97377.32;104944;1288;25932;-92
2022/06/20 05:50:15;;;;;;;13.80;6.80;;;;;;;22.62;56.04;97369.49;105171;1288;25458;-92
2022/06/20 05:52:44;;;;;;;13.60;5.00;;;;;;;22.72;55.60;97369.02;105201;1288;24311;-92
2022/06/20 05:55:21;;;;;;;13.00;7.00;;;;;;;22.78;55.42;97372.95;105123;1288;22571;-92
2022/06/20 05:57:50;;;;;;;8.90;4.70;;;;;;;22.88;55.43;97368.95;105077;1288;22584;-92
2022/06/20 06:00:24;;;;;;;11.00;5.20;;;;;;;22.98;55.35;97365.14;105126;1288;22627;-91
2022/06/20 06:02:57;;;;;;;8.80;4.70;;;;;;;23.09;55.10;97355.08;105368;1288;22568;-90
2022/06/20 06:05:36;;;;;;;27.70;14.70;;;;;;;23.18;54.29;97349.09;105344;1288;22559;-92
2022/06/20 06:08:19;;;;;;;12.10;6.30;;;;;;;23.29;54.57;97345.23;105213;1288;22483;-92
2022/06/20 06:11:18;;;;;;;10.50;4.70;;;;;;;23.39;53.96;97336.24;105349;1288;25246;-92
2022/06/20 06:14:02;;;;;;;11.80;6.90;;;;;;;23.51;53.67;97336.77;105763;1288;22585;-91
2022/06/20 06:17:00;;;;;;;16.20;7.00;;;;;;;23.65;54.19;97335.30;105474;1291;22689;-89
2022/06/20 06:19:50;;;;;;;11.40;7.10;;;;;;;23.81;54.00;97332.83;107917;1290;22609;-92
2022/06/20 06:23:14;;;;;;;8.50;6.50;;;;;;;23.94;54.07;97335.27;107299;1288;23554;-91
2022/06/20 06:25:44;;;;;;;10.20;4.90;;;;;;;24.09;53.31;97338.65;106422;1288;22737;-90
2022/06/20 06:28:23;;;;;;;11.90;5.00;;;;;;;24.10;51.90;97336.13;105960;1288;22502;-93
2022/06/20 06:31:06;;;;;;;8.20;4.20;;;;;;;24.11;52.00;97337.60;105701;1288;22821;-91
2022/06/20 06:33:49;;;;;;;11.90;5.90;;;;;;;24.16;51.72;97337.98;105354;1290;22638;-92
2022/06/20 06:36:31;;;;;;;9.80;5.30;;;;;;;24.23;51.97;97336.05;105248;1288;25330;-92
2022/06/20 06:39:21;;;;;;;10.80;4.00;;;;;;;24.28;50.71;97334.91;105103;1288;22663;-91
2022/06/20 06:41:54;;;;;;;6.00;3.30;;;;;;;24.27;49.70;97332.96;105549;1288;22574;-90
2022/06/20 06:44:30;;;;;;;9.50;4.50;;;;;;;24.26;50.16;97330.29;107204;1288;23872;-93
2022/06/20 06:46:59;;;;;;;11.00;4.80;;;;;;;24.39;50.66;97328.56;107173;1290;22581;-93
2022/06/20 06:49:46;;;;;;;10.20;5.10;;;;;;;24.51;50.13;97323.77;107359;1290;25373;-91
2022/06/20 06:52:45;;;;;;;7.40;4.10;;;;;;;24.68;50.56;97321.84;106807;1288;24328;-92
2022/06/20 06:55:28;;;;;;;11.20;4.40;;;;;;;24.84;48.93;97327.52;105368;1297;22584;-90
2022/06/20 06:58:23;;;;;;;8.60;4.30;;;;;;;24.88;48.71;97323.54;104336;1297;22686;-88
2022/06/20 07:01:00;;;;;;;11.40;5.20;;;;;;;24.97;47.74;97320.16;103942;1297;22651;-90
2022/06/20 07:03:38;;;;;;;12.20;4.50;;;;;;;24.99;47.20;97316.21;104095;1297;23420;-91
2022/06/20 07:06:17;;;;;;;11.00;2.90;;;;;;;24.97;46.08;97315.36;104057;1297;22576;-89
2022/06/20 07:09:24;;;;;;;7.40;3.00;;;;;;;24.94;46.12;97315.54;104056;1297;22739;-89
2022/06/20 07:12:07;;;;;;;4.20;3.00;;;;;;;25.00;46.76;97314.55;104226;1297;24685;-89
2022/06/20 07:14:41;;;;;;;9.60;3.70;;;;;;;25.10;46.09;97312.08;104934;1297;23969;-92
2022/06/20 07:17:18;;;;;;;20.00;8.60;;;;;;;25.16;46.40;97312.13;105058;1297;22729;-83
2022/06/20 07:19:50;;;;;;;9.80;5.00;;;;;;;25.27;46.63;97314.22;103926;1297;25478;-82
2022/06/20 07:22:21;;;;;;;11.70;4.30;;;;;;;25.37;46.16;97315.12;103775;1297;22733;-82
2022/06/20 07:24:51;;;;;;;9.60;3.50;;;;;;;25.48;46.31;97307.85;103923;1297;25678;-82
2022/06/20 07:27:44;;;;;;;12.00;5.40;;;;;;;25.60;46.09;97306.13;104104;1297;22595;-82
2022/06/20 07:30:17;;;;;;;6.90;4.00;;;;;;;25.68;45.82;97310.34;104429;1297;25382;-81
2022/06/20 07:33:00;;;;;;;7.60;4.10;;;;;;;25.67;45.23;97305.23;104742;1290;22605;-81
2022/06/20 07:35:35;;;;;;;8.40;4.40;;;;;;;25.75;45.34;97303.58;104954;1288;25544;-81
2022/06/20 07:38:09;;;;;;;;;;;;;;;25.83;45.44;97305.70;104994;1288;22550;-81
2022/06/20 07:40:52;;;;;;;15.40;6.80;;;;;;;25.92;45.19;97301.86;104753;1290;22684;-83
2022/06/20 07:43:38;;;;;;;11.30;4.70;;;;;;;25.95;44.97;97295.46;104792;1288;22790;-82
2022/06/20 07:46:12;;;;;;;11.60;5.90;;;;;;;26.01;44.77;97297.73;104799;1289;24008;-82
2022/06/20 07:48:43;;;;;;;16.30;6.30;;;;;;;26.08;44.89;97299.54;104975;1288;22571;-83
2022/06/20 07:51:14;;;;;;;15.10;6.80;;;;;;;26.14;43.97;97297.69;105052;1288;22682;-82
2022/06/20 07:54:08;;;;;;;14.50;7.40;;;;;;;26.12;43.99;97290.31;104954;1288;22674;-82
2022/06/20 07:57:02;;;;;;;9.10;4.20;;;;;;;26.20;44.59;97289.81;105020;1288;23152;-81
2022/06/20 07:59:58;;;;;;;6.90;3.80;;;;;;;26.39;44.69;97279.02;105040;1288;22583;-82
2022/06/20 08:02:38;;;;;;;7.10;3.60;;;;;;;26.60;44.63;97271.05;104842;1291;22707;-81
2022/06/20 08:05:11;;;;;;;9.10;4.00;;;;;;;26.78;44.67;97265.77;105015;1288;22626;-81
2022/06/20 08:07:54;;;;;;;16.40;4.70;;;;;;;26.96;44.68;97259.02;105021;1288;22618;-81
2022/06/20 08:10:44;;;;;;;8.20;3.70;;;;;;;27.12;44.22;97249.27;105009;1288;24406;-82
2022/06/20 08:13:15;;;;;;;8.00;4.00;;;;;;;27.26;44.04;97245.15;105007;1288;22674;-83
2022/06/20 08:15:47;;;;;;;8.20;3.80;;;;;;;27.37;44.19;97240.98;105012;1288;22549;-82
2022/06/20 08:18:15;;;;;;;8.20;4.20;;;;;;;27.52;44.07;97237.52;104953;1288;22572;-82
2022/06/20 08:20:51;;;;;;;11.50;3.80;;;;;;;27.64;43.21;97229.89;104979;1288;22584;-82
2022/06/20 08:23:36;;;;;;;6.30;3.70;;;;;;;27.73;43.13;97223.61;104991;1288;24223;-82
2022/06/20 08:26:12;;;;;;;10.80;4.70;;;;;;;27.73;41.95;97216.27;104956;1288;25494;-82
2022/06/20 08:29:04;;;;;;;10.30;3.50;;;;;;;27.67;42.23;97214.17;105002;1290;23654;-82
2022/06/20 08:31:36;;;;;;;11.60;3.90;;;;;;;27.82;42.51;97216.25;104985;1288;22585;-82
2022/06/20 08:34:10;;;;;;;6.90;3.40;;;;;;;27.92;42.14;97212.69;104670;1289;22660;-82
2022/06/20 08:36:51;;;;;;;7.30;3.30;;;;;;;27.91;41.58;97206.88;104991;1288;22633;-82
2022/06/20 08:39:40;;;;;;;7.90;4.20;;;;;;;27.86;41.47;97204.14;105358;1287;23696;-89
2022/06/20 08:42:11;;;;;;;9.20;3.30;;;;;;;27.94;41.78;97201.81;105178;1287;22769;-87
2022/06/20 08:44:57;;;;;;;10.40;4.20;;;;;;;28.08;41.25;97198.08;105480;1287;22586;-86
2022/06/20 08:48:08;;;;;;;11.90;4.50;;;;;;;28.09;39.75;97192.77;105375;1287;25421;-87
2022/06/20 08:50:45;;;;;;;13.00;3.30;;;;;;;28.18;40.53;97196.56;105216;1287;22572;-86
2022/06/20 08:53:16;;;;;;;7.60;3.60;;;;;;;28.25;40.66;97192.45;105174;1287;22614;-86
2022/06/20 08:56:15;;;;;;;7.00;3.40;;;;;;;28.35;39.98;97191.56;105397;1286;23327;-88
2022/06/20 08:59:06;;;;;;;8.00;4.50;;;;;;;28.49;40.32;97192.49;105494;1287;25714;-89
2022/06/20 09:02:01;;;;;;;9.80;3.50;;;;;;;28.60;39.69;97192.60;105318;1287;26534;-87
2022/06/20 09:04:54;;;;;;;7.80;3.30;;;;;;;28.61;39.38;97186.03;105200;1287;22923;-89
2022/06/20 09:07:37;;;;;;;9.40;3.60;;;;;;;28.67;39.81;97176.91;105638;1287;23942;-87
2022/06/20 09:10:17;;;;;;;10.40;3.70;;;;;;;28.84;39.32;97170.36;105285;1287;22603;-92
2022/06/20 09:13:13;;;;;;;7.60;3.50;;;;;;;29.01;39.70;97165.62;105678;1287;25380;-90
2022/06/20 09:16:26;;;;;;;7.30;3.20;;;;;;;29.15;39.05;97169.98;105259;1288;22698;-87
2022/06/20 09:19:16;;;;;;;11.10;3.40;;;;;;;29.20;38.66;97160.64;105293;1287;25409;-88
2022/06/20 09:21:50;;;;;;;6.50;3.50;;;;;;;29.19;38.64;97153.86;106779;1287;25371;-91
2022/06/20 09:24:34;;;;;;;5.90;3.10;;;;;;;29.29;38.62;97148.89;105985;1287;22567;-91
2022/06/20 09:27:15;;;;;;;8.20;3.30;;;;;;;29.41;38.74;97142.27;105845;1287;25264;-90
2022/06/20 09:29:48;;;;;;;6.00;3.20;;;;;;;29.54;38.43;97137.83;106071;1287;22576;-93
2022/06/20 09:32:35;;;;;;;6.60;2.90;;;;;;;29.75;37.67;97128.85;105454;1288;22711;-89
2022/06/20 09:35:41;;;;;;;8.50;2.90;;;;;;;29.96;37.39;97124.00;105641;1287;22752;-89
2022/06/20 09:38:24;;;;;;;13.90;3.20;;;;;;;30.19;36.81;97119.45;106153;1288;23139;-90
2022/06/20 09:41:24;;;;;;;6.10;3.00;;;;;;;30.31;36.87;97117.45;106979;1287;22538;-87
2022/06/20 09:43:58;;;;;;;7.10;2.90;;;;;;;30.43;35.41;97112.54;107370;1287;22844;-92
2022/06/20 09:46:40;;;;;;;8.90;3.60;;;;;;;30.30;34.98;97107.16;106665;1287;22601;-90
2022/06/20 09:49:34;;;;;;;8.00;3.00;;;;;;;30.24;35.35;97103.70;106119;1287;22562;-91
2022/06/20 09:52:31;;;;;;;10.90;3.70;;;;;;;30.35;34.89;97098.52;105625;1287;22626;-88
2022/06/20 09:55:43;;;;;;;7.70;2.70;;;;;;;30.47;35.22;97094.67;106652;1288;22501;-92
2022/06/20 09:58:25;;;;;;;9.20;3.10;;;;;;;30.70;35.25;97092.81;106343;1287;22602;-90
2022/06/20 10:01:03;;;;;;;7.80;2.70;;;;;;;30.90;35.47;97091.71;106339;1287;22629;-92
2022/06/20 10:03:57;;;;;;;8.60;3.60;;;;;;;31.03;35.00;97092.66;105826;1287;22734;-86
2022/06/20 10:06:54;;;;;;;8.50;3.50;;;;;;;31.05;33.89;97092.65;105547;1287;26680;-88
2022/06/20 10:09:40;;;;;;;14.40;6.50;;;;;;;31.04;34.11;97085.86;105353;1287;23127;-89
2022/06/20 10:12:56;;;;;;;7.20;3.50;;;;;;;31.07;33.30;97080.36;105356;1287;22757;-87
2022/06/20 10:16:06;;;;;;;11.80;2.90;;;;;;;31.13;33.37;97082.11;104532;1297;24447;-89
2022/06/20 10:18:59;;;;;;;7.90;2.60;;;;;;;31.25;33.61;97083.77;104538;1297;22638;-87
2022/06/20 10:21:51;;;;;;;10.50;3.50;;;;;;;31.51;33.85;97080.02;104876;1297;25334;-89
2022/06/20 10:24:34;;;;;;;4.10;2.30;;;;;;;31.75;33.41;97075.16;105070;1295;22589;-90
2022/06/20 10:27:12;;;;;;;6.80;2.60;;;;;;;31.90;33.12;97066.73;104660;1297;24389;-88
2022/06/20 10:29:50;;;;;;;6.20;2.60;;;;;;;31.98;32.17;97059.67;104389;1297;24381;-88
2022/06/20 10:32:39;;;;;;;7.10;2.80;;;;;;;32.06;31.74;97055.85;104442;1297;22588;-89
2022/06/20 10:35:28;;;;;;;6.50;2.80;;;;;;;32.08;31.52;97053.12;104545;1297;25684;-86
2022/06/20 10:38:24;;;;;;;8.80;2.70;;;;;;;32.12;31.33;97061.30;106744;1281;22591;-87
2022/06/20 10:41:06;;;;;;;7.90;3.00;;;;;;;32.05;31.10;97070.77;108125;1287;23125;-84
2022/06/20 10:43:46;;;;;;;9.70;2.90;;;;;;;32.04;31.24;97076.13;108159;1287;22837;-91
2022/06/20 10:46:26;;;;;;;7.80;2.90;;;;;;;32.20;31.71;97080.08;108224;1287;22587;-84
2022/06/20 10:49:45;;;;;;;7.40;2.60;;;;;;;32.26;30.73;97081.55;107909;1287;22524;-88
2022/06/20 10:52:21;;;;;;;8.60;3.20;;;;;;;32.16;31.01;97078.98;105779;1293;22664;-88
2022/06/20 10:54:57;;;;;;;11.00;2.90;;;;;;;32.23;31.28;97076.70;104816;1294;22608;-90
2022/06/20 10:57:43;;;;;;;8.90;3.20;;;;;;;32.34;30.73;97075.95;105145;1294;22618;-91
2022/06/20 11:00:15;;;;;;;8.10;2.50;;;;;;;32.47;31.36;97079.97;106413;1294;24262;-91
2022/06/20 11:02:43;;;;;;;8.60;2.90;;;;;;;32.70;30.88;97080.48;106846;1293;22596;-92
2022/06/20 11:05:21;;;;;;;8.60;3.00;;;;;;;32.88;31.37;97077.76;106003;1293;22788;-89
2022/06/20 11:08:24;;;;;;;5.20;2.80;;;;;;;33.09;31.20;97072.83;105433;1294;24218;-87
2022/06/20 11:11:01;;;;;;;9.20;2.80;;;;;;;33.33;31.27;97073.48;104560;1294;22592;-90
2022/06/20 11:14:10;;;;;;;6.80;2.80;;;;;;;33.51;30.89;97077.65;104775;1294;22666;-87
2022/06/20 11:17:04;;;;;;;8.20;3.00;;;;;;;33.64;31.29;97069.85;104350;1300;25430;-90
2022/06/20 11:20:03;;;;;;;8.20;2.80;;;;;;;33.83;31.31;97063.11;103491;1309;22641;-87
2022/06/20 11:22:41;;;;;;;10.10;3.10;;;;;;;33.91;31.11;97066.77;103368;1309;22597;-89
2022/06/20 11:25:18;;;;;;;6.60;3.00;;;;;;;33.99;30.54;97071.26;103702;1309;24132;-86
2022/06/20 11:28:40;;;;;;;8.70;3.00;;;;;;;33.95;30.10;97078.08;103812;1303;22854;-91
2022/06/20 11:31:21;;;;;;;9.10;2.80;;;;;;;33.76;30.40;97073.99;103678;1308;22663;-90
2022/06/20 11:34:34;;;;;;;6.50;3.00;;;;;;;33.82;30.89;97077.11;103546;1309;25730;-89
2022/06/20 11:37:08;;;;;;;8.50;2.60;;;;;;;34.19;30.84;97081.11;103317;1313;22592;-89
2022/06/20 11:40:08;;;;;;;13.80;3.20;;;;;;;34.43;30.56;97081.77;103281;1315;22593;-90
2022/06/20 11:42:48;;;;;;;7.60;3.40;;;;;;;34.77;30.46;97078.21;103297;1315;24263;-89
2022/06/20 11:45:28;;;;;;;13.00;3.00;;;;;;;35.02;29.54;97079.17;103273;1315;23777;-90
2022/06/20 11:48:17;;;;;;;8.10;2.80;;;;;;;35.18;29.93;97080.42;103151;1314;22785;-89
2022/06/20 11:50:50;;;;;;;12.60;3.30;;;;;;;35.32;29.26;97083.34;103425;1315;22677;-86
2022/06/20 11:53:30;;;;;;;9.00;3.30;;;;;;;35.05;28.37;97119.75;105140;1309;23253;-87
2022/06/20 11:56:06;;;;;;;7.20;2.80;;;;;;;34.40;27.46;97166.29;104859;1309;24238;-87
2022/06/20 11:59:17;;;;;;;9.90;3.20;;;;;;;33.34;28.47;97212.94;104306;1303;22595;-83
2022/06/20 12:01:51;;;;;;;7.60;3.50;;;;;;;32.33;30.13;97223.77;104377;1297;25582;-81
2022/06/20 12:04:34;;;;;;;14.10;3.40;;;;;;;31.61;31.06;97235.62;104489;1297;24435;-79
2022/06/20 12:07:23;;;;;;;13.30;3.20;;;;;;;31.14;32.54;97256.03;104506;1297;22582;-80
2022/06/20 12:10:29;;;;;;;18.80;4.50;;;;;;;30.48;33.85;97290.65;104575;1297;25420;-85
2022/06/20 12:13:20;;;;;;;25.10;4.90;;;;;;;29.74;34.60;97282.50;104282;1297;25550;-82
2022/06/20 12:15:58;;;;;;;16.10;3.20;;;;;;;29.26;34.56;97310.48;105190;1287;22595;-89
2022/06/20 12:18:31;;;;;;;21.20;3.80;;;;;;;28.75;33.31;97303.13;105168;1287;25301;-83
2022/06/20 12:24:08;;;;;;;24.70;3.60;;;;;;;27.94;35.21;97298.63;105185;1287;25255;-83
2022/06/20 12:26:39;;;;;;;16.10;2.90;;;;;;;27.69;36.07;97278.66;105304;1287;22569;-83
2022/06/20 12:29:17;;;;;;;20.90;3.40;;;;;;;27.47;37.08;97275.49;105355;1287;22552;-82
2022/06/20 12:31:54;;;;;;;15.70;3.20;;;;;;;27.30;38.07;97277.79;105425;1287;22623;-83
2022/06/20 12:34:55;;;;;;;15.20;2.90;;;;;;;27.20;38.13;97281.77;105203;1288;22570;-83
2022/06/20 12:37:34;;;;;;;13.70;2.80;;;;;;;26.94;38.86;97278.19;104451;1297;24246;-83
2022/06/20 12:40:10;;;;;;;13.30;2.90;;;;;;;26.70;39.53;97263.62;104530;1297;22990;-84